Time;durP1;ratioP1;P1;durP2;ratioP2;P2;SDS_P1;SDS_P2;PMS_P1;PMS_P2;Temp;Humidity;BMP_temperature;BMP_pressure;BME280_temperature;BME280_humidity;BME280_pressure;Samples;Min_cycle;Max_cycle;Signal;HPM_P1;HPM_P2
2023/07/07 00:04:04;;;;;;;;;;;;;;;23.44;41.75;95963.59;10384326;28;2435;-73
2023/07/07 00:09:04;;;;;;;;;;;;;;;23.43;41.97;95965.44;10410923;28;1887;-73
2023/07/07 00:14:05;;;;;;;;;;;;;;;23.43;41.87;95964.69;10382710;28;2073;-73
2023/07/07 00:19:09;;;;;;;;;;;;;;;23.45;42.13;95973.09;10412547;28;2092;-73
2023/07/07 00:24:09;;;;;;;;;;;;;;;23.44;42.06;95960.94;10382512;28;2261;-72
2023/07/07 00:29:10;;;;;;;;;;;;;;;23.45;42.06;95973.09;10378552;28;1890;-73
2023/07/07 00:34:10;;;;;;;;;;;;;;;23.44;42.19;95971.53;10401645;28;1930;-72
2023/07/07 00:39:10;;;;;;;;;;;;;;;23.43;42.28;95969.97;10382166;28;1993;-72
2023/07/07 00:44:10;;;;;;;;;;;;;;;23.43;42.47;95969.97;10399384;28;2021;-72
2023/07/07 00:49:14;;;;;;;;;;;;;;;23.42;42.41;95978.97;10389157;28;1993;-72
2023/07/07 00:54:16;;;;;;;;;;;;;;;23.41;42.43;95978.16;10381199;28;2041;-71
2023/07/07 00:59:20;;;;;;;;;;;;;;;23.37;42.53;95986.94;10399190;28;1987;-70
2023/07/07 01:04:20;;;;;;;;;;;;;;;23.33;42.36;95981.44;10383258;28;2046;-72
2023/07/07 01:09:21;;;;;;;;;;;;;;;23.31;42.78;95993.34;10383234;28;2049;-72
2023/07/07 01:14:22;;;;;;;;;;;;;;;23.32;42.39;95997.63;10406465;28;1967;-72
2023/07/07 01:19:31;;;;;;;;;;;;;;;23.31;42.66;95996.00;10405025;28;1980;-72
2023/07/07 01:24:41;;;;;;;;;;;;;;;23.30;42.78;95991.78;10391102;28;2346;-73
2023/07/07 01:29:41;;;;;;;;;;;;;;;23.29;42.68;95990.22;10390295;28;2007;-72
2023/07/07 01:34:42;;;;;;;;;;;;;;;23.29;42.40;95991.00;10405480;28;1975;-72
2023/07/07 01:39:42;;;;;;;;;;;;;;;23.28;42.79;95986.78;10388455;28;2143;-73
2023/07/07 01:44:56;;;;;;;;;;;;;;;23.27;42.44;95987.06;10406110;28;4249;-74
2023/07/07 01:50:06;;;;;;;;;;;;;;;23.26;42.65;95998.72;10412967;28;2047;-74
2023/07/07 01:55:10;;;;;;;;;;;;;;;23.28;42.51;96001.88;10404969;28;2038;-72
2023/07/07 02:00:11;;;;;;;;;;;;;;;23.28;42.71;95999.22;10419903;28;2177;-73
2023/07/07 02:05:11;;;;;;;;;;;;;;;23.27;42.52;96002.94;10386593;28;2055;-72
2023/07/07 02:10:11;;;;;;;;;;;;;;;23.27;42.45;95997.63;10391228;28;2071;-72
2023/07/07 02:15:12;;;;;;;;;;;;;;;23.26;42.31;96006.66;10404521;28;2020;-73
2023/07/07 02:20:12;;;;;;;;;;;;;;;23.24;42.30;96006.94;10401910;28;2311;-72
2023/07/07 02:25:12;;;;;;;;;;;;;;;23.24;42.30;96014.09;10399083;28;2166;-72
2023/07/07 02:30:12;;;;;;;;;;;;;;;23.22;42.45;96009.09;10400456;28;1993;-72
2023/07/07 02:35:13;;;;;;;;;;;;;;;23.21;42.55;96012.00;10403366;28;1963;-73
2023/07/07 02:40:15;;;;;;;;;;;;;;;23.20;42.34;96008.59;10384665;28;2052;-73
2023/07/07 02:45:15;;;;;;;;;;;;;;;23.21;42.40;96014.66;10399681;28;4469;-73
2023/07/07 02:50:17;;;;;;;;;;;;;;;23.20;42.35;96013.88;10413865;28;1967;-73
2023/07/07 02:55:17;;;;;;;;;;;;;;;23.17;42.23;96009.16;10402499;28;2063;-71
2023/07/07 03:00:18;;;;;;;;;;;;;;;23.17;42.29;96018.94;10383948;28;1977;-72
2023/07/07 03:05:19;;;;;;;;;;;;;;;23.14;42.27;96016.88;10404251;28;2126;-72
2023/07/07 03:10:19;;;;;;;;;;;;;;;23.15;42.34;96018.44;10385959;28;1993;-73
2023/07/07 03:15:20;;;;;;;;;;;;;;;23.14;42.41;96022.16;10384727;28;2377;-72
2023/07/07 03:20:23;;;;;;;;;;;;;;;23.13;42.43;96024.00;10400376;28;2284;-71
2023/07/07 03:25:27;;;;;;;;;;;;;;;23.12;42.30;96021.66;10399947;28;1977;-71
2023/07/07 03:30:27;;;;;;;;;;;;;;;23.11;42.40;96030.63;10400275;28;2070;-71
2023/07/07 03:35:27;;;;;;;;;;;;;;;23.08;42.58;96039.16;10398608;28;8804;-71
2023/07/07 03:40:28;;;;;;;;;;;;;;;23.06;42.39;96038.66;10383538;28;8388;-71
2023/07/07 03:45:28;;;;;;;;;;;;;;;23.06;42.50;96041.28;10398923;28;2015;-71
2023/07/07 03:50:28;;;;;;;;;;;;;;;23.06;42.71;96041.28;10397991;28;5385;-70
2023/07/07 03:55:28;;;;;;;;;;;;;;;23.04;42.64;96049.47;10406914;28;2026;-71
2023/07/07 04:00:29;;;;;;;;;;;;;;;23.03;42.54;96040.00;10385608;28;2200;-71
2023/07/07 04:05:29;;;;;;;;;;;;;;;23.04;42.37;96038.16;10400029;28;2036;-70
2023/07/07 04:10:29;;;;;;;;;;;;;;;23.04;42.46;96046.06;10397618;28;3398;-71
2023/07/07 04:15:30;;;;;;;;;;;;;;;23.04;42.47;96049.47;10411504;28;2065;-71
2023/07/07 04:20:32;;;;;;;;;;;;;;;23.04;42.63;96052.13;10407055;28;1998;-72
2023/07/07 04:25:32;;;;;;;;;;;;;;;23.03;42.49;96050.56;10408011;28;2096;-71
2023/07/07 04:30:32;;;;;;;;;;;;;;;23.02;42.77;96050.84;10399485;28;2241;-72
2023/07/07 04:35:36;;;;;;;;;;;;;;;23.03;42.63;96055.84;10401861;28;2086;-72
2023/07/07 04:40:36;;;;;;;;;;;;;;;23.03;42.38;96060.34;10398045;28;6381;-71
2023/07/07 04:45:37;;;;;;;;;;;;;;;23.02;42.56;96064.84;10409334;28;2055;-70
2023/07/07 04:50:37;;;;;;;;;;;;;;;23.04;42.49;96068.00;10393476;28;1935;-70
2023/07/07 04:55:44;;;;;;;;;;;;;;;23.04;42.30;96070.63;10406168;28;2000;-71
2023/07/07 05:00:45;;;;;;;;;;;;;;;23.05;42.40;96085.44;10414427;28;1998;-71
2023/07/07 05:05:45;;;;;;;;;;;;;;;23.06;42.60;96088.88;10403949;28;2076;-72
2023/07/07 05:10:47;;;;;;;;;;;;;;;23.06;42.56;96097.59;10406064;28;2031;-70
2023/07/07 05:15:47;;;;;;;;;;;;;;;23.05;42.39;96101.31;10393495;28;2088;-70
2023/07/07 05:20:47;;;;;;;;;;;;;;;23.06;42.66;96096.81;10403674;28;1976;-70
2023/07/07 05:25:48;;;;;;;;;;;;;;;23.07;42.62;96098.38;10403677;28;2253;-71
2023/07/07 05:30:48;;;;;;;;;;;;;;;23.08;42.40;96102.63;10405134;28;2171;-71
2023/07/07 05:35:49;;;;;;;;;;;;;;;23.09;42.45;96112.91;10405518;28;2135;-72
2023/07/07 05:40:50;;;;;;;;;;;;;;;23.10;42.32;96108.41;10405886;28;5433;-72
2023/07/07 05:45:54;;;;;;;;;;;;;;;23.11;42.47;96110.75;10376055;28;1968;-72
2023/07/07 05:50:58;;;;;;;;;;;;;;;23.15;42.38;96105.69;10412196;28;2019;-64
2023/07/07 05:56:03;;;;;;;;;;;;;;;23.15;42.64;96109.13;10400352;28;2034;-63
2023/07/07 06:01:03;;;;;;;;;;;;;;;23.16;42.53;96112.56;10399416;28;2015;-70
2023/07/07 06:06:04;;;;;;;;;;;;;;;23.16;42.61;96109.94;10379381;28;1951;-72
2023/07/07 06:11:04;;;;;;;;;;;;;;;23.18;42.51;96115.72;10395075;28;1910;-69
2023/07/07 06:16:05;;;;;;;;;;;;;;;23.18;42.85;96111.22;10399844;28;2008;-71
2023/07/07 06:21:07;;;;;;;;;;;;;;;23.19;42.70;96122.56;10404079;28;2026;-70
2023/07/07 06:26:08;;;;;;;;;;;;;;;23.19;42.67;96125.22;10393490;28;2115;-70
2023/07/07 06:31:08;;;;;;;;;;;;;;;23.20;42.93;96122.31;10383248;28;1980;-71
2023/07/07 06:36:08;;;;;;;;;;;;;;;23.19;42.62;96123.38;10397254;28;2344;-70
2023/07/07 06:41:12;;;;;;;;;;;;;;;23.20;42.61;96126.81;10380169;28;2114;-71
2023/07/07 06:46:12;;;;;;;;;;;;;;;23.19;42.46;96130.50;10397744;28;1998;-71
2023/07/07 06:51:12;;;;;;;;;;;;;;;23.19;42.80;96125.22;10406903;28;2008;-70
2023/07/07 06:56:13;;;;;;;;;;;;;;;23.17;42.47;96130.78;10396128;28;1906;-70
2023/07/07 07:01:13;;;;;;;;;;;;;;;23.19;42.59;96138.44;10377812;28;1877;-71
2023/07/07 07:06:14;;;;;;;;;;;;;;;23.21;42.69;96136.31;10372765;28;2016;-73
2023/07/07 07:11:16;;;;;;;;;;;;;;;23.22;42.72;96129.97;10384448;28;1988;-72
2023/07/07 07:16:16;;;;;;;;;;;;;;;23.20;43.01;96132.91;10385998;28;1954;-70
2023/07/07 07:21:17;;;;;;;;;;;;;;;23.22;42.68;96135.25;10383560;28;2025;-72
2023/07/07 07:26:17;;;;;;;;;;;;;;;23.24;42.75;96139.19;10388359;28;1971;-74
2023/07/07 07:31:17;;;;;;;;;;;;;;;23.26;42.93;96131.78;10382674;28;2254;-72
2023/07/07 07:36:18;;;;;;;;;;;;;;;23.28;42.75;96139.41;10378804;28;2010;-72
2023/07/07 07:41:18;;;;;;;;;;;;;;;23.25;42.71;96145.25;10367326;28;5483;-73
2023/07/07 07:46:19;;;;;;;;;;;;;;;23.25;42.29;96151.34;10366347;28;1974;-74
2023/07/07 07:51:19;;;;;;;;;;;;;;;23.25;42.41;96153.19;10386523;28;1894;-74
2023/07/07 07:56:19;;;;;;;;;;;;;;;23.26;42.51;96155.56;10384812;28;1913;-74
2023/07/07 08:01:20;;;;;;;;;;;;;;;23.27;42.65;96157.13;10386736;28;1935;-75
2023/07/07 08:06:20;;;;;;;;;;;;;;;23.28;42.77;96158.72;10383570;28;2013;-74
2023/07/07 08:11:25;;;;;;;;;;;;;;;23.30;42.41;96161.09;10369428;28;1903;-75
2023/07/07 08:16:25;;;;;;;;;;;;;;;23.30;42.47;96155.78;10389402;28;1999;-76
2023/07/07 08:21:26;;;;;;;;;;;;;;;23.30;42.23;96161.09;10392028;28;2106;-75
2023/07/07 08:26:26;;;;;;;;;;;;;;;23.30;42.09;96150.50;10377478;28;2285;-76
2023/07/07 08:31:27;;;;;;;;;;;;;;;23.30;42.09;96161.09;10378551;28;1900;-74
2023/07/07 08:36:28;;;;;;;;;;;;;;;23.31;42.17;96160.00;10392407;28;1915;-74
2023/07/07 08:41:28;;;;;;;;;;;;;;;23.32;42.16;96161.63;10391232;28;1993;-73
2023/07/07 08:46:39;;;;;;;;;;;;;;;23.32;41.96;96159.78;10375237;28;1949;-74
2023/07/07 08:51:41;;;;;;;;;;;;;;;23.31;41.44;96162.66;10376395;28;1883;-70
2023/07/07 08:56:45;;;;;;;;;;;;;;;23.29;41.01;96155.00;10389355;28;2016;-71
2023/07/07 09:01:45;;;;;;;;;;;;;;;23.29;40.89;96152.34;10375071;28;1933;-69
2023/07/07 09:07:01;;;;;;;;;;;;;;;23.27;39.51;96148.41;10393273;28;1934;-69
2023/07/07 09:12:16;;;;;;;;;;;;;;;23.26;40.35;96149.50;10370254;28;1979;-69
2023/07/07 09:17:24;;;;;;;;;;;;;;;23.25;38.38;96156.63;10368126;28;1896;-70
2023/07/07 09:22:38;;;;;;;;;;;;;;;23.23;39.17;96152.69;10387115;28;2277;-68
2023/07/07 09:27:40;;;;;;;;;;;;;;;23.24;39.33;96151.63;10369966;28;1994;-70
2023/07/07 09:32:40;;;;;;;;;;;;;;;23.24;37.44;96152.41;10370740;28;1878;-69
2023/07/07 09:37:52;;;;;;;;;;;;;;;23.25;37.16;96150.53;10389423;28;2051;-69
2023/07/07 09:42:52;;;;;;;;;;;;;;;23.25;36.65;96147.91;10388610;28;5158;-71
2023/07/07 09:48:07;;;;;;;;;;;;;;;23.25;36.52;96142.59;10380787;28;2256;-71
2023/07/07 09:53:27;;;;;;;;;;;;;;;23.24;37.59;96141.84;10358196;28;1905;-73
2023/07/07 09:58:38;;;;;;;;;;;;;;;23.26;36.24;96138.91;10410640;28;2020;-71
2023/07/07 10:03:43;;;;;;;;;;;;;;;23.26;35.79;96139.69;10388757;28;2592;-73
2023/07/07 10:08:46;;;;;;;;;;;;;;;23.26;35.40;96141.56;10400838;28;1969;-73
2023/07/07 10:14:12;;;;;;;;;;;;;;;23.25;35.40;96132.81;10408141;28;1890;-72
2023/07/07 10:19:14;;;;;;;;;;;;;;;23.26;36.39;96133.63;10408649;28;2514;-73
2023/07/07 10:24:15;;;;;;;;;;;;;;;23.27;35.98;96128.03;10388192;28;1913;-74
2023/07/07 10:29:20;;;;;;;;;;;;;;;23.28;36.13;96136.78;10391140;28;1926;-75
2023/07/07 10:34:40;;;;;;;;;;;;;;;23.32;36.30;96129.88;10373120;28;1881;-71
2023/07/07 10:45:17;;;;;;;;;;;;;;;;;;10398299;28;1910;-68
2023/07/07 10:50:18;;;;;;;;;;;;;;;23.39;35.90;96132.97;10390127;28;1874;-68
2023/07/07 10:55:18;;;;;;;;;;;;;;;23.36;36.09;96131.69;10391703;28;1906;-69
2023/07/07 11:00:22;;;;;;;;;;;;;;;23.38;36.13;96136.69;10421375;28;2225;-68
2023/07/07 11:05:22;;;;;;;;;;;;;;;23.40;36.72;96126.59;10383695;28;1982;-66
2023/07/07 11:10:41;;;;;;;;;;;;;;;23.44;36.30;96119.69;10427919;28;1914;-67
2023/07/07 11:15:43;;;;;;;;;;;;;;;23.42;36.61;96121.81;10415630;28;1996;-67
2023/07/07 11:20:44;;;;;;;;;;;;;;;23.45;36.05;96121.28;10370592;28;2054;-68
2023/07/07 11:25:47;;;;;;;;;;;;;;;23.46;35.94;96114.91;10386040;28;1954;-68
2023/07/07 11:31:05;;;;;;;;;;;;;;;23.52;35.62;96111.13;10385598;28;2014;-72
2023/07/07 11:36:08;;;;;;;;;;;;;;;23.48;36.64;96115.41;10383976;28;2097;-73
2023/07/07 11:41:13;;;;;;;;;;;;;;;23.51;37.15;96103.47;10384803;28;4645;-68
2023/07/07 11:46:15;;;;;;;;;;;;;;;23.51;37.09;96104.25;10352477;28;1981;-69
2023/07/07 11:51:16;;;;;;;;;;;;;;;23.52;37.38;96099.72;10349415;28;1917;-69
2023/07/07 11:56:22;;;;;;;;;;;;;;;23.53;37.63;96099.47;10366506;28;1961;-71
2023/07/07 12:01:25;;;;;;;;;;;;;;;23.54;38.05;96101.03;10379051;28;1909;-67
2023/07/07 12:06:29;;;;;;;;;;;;;;;23.56;38.25;96101.53;10362777;28;2090;-70
2023/07/07 12:11:30;;;;;;;;;;;;;;;23.57;38.58;96095.19;10383817;28;2190;-66
2023/07/07 12:16:31;;;;;;;;;;;;;;;23.60;38.70;96091.97;10361537;28;1914;-70
2023/07/07 12:21:31;;;;;;;;;;;;;;;23.60;38.92;96081.38;10367302;28;1856;-67
2023/07/07 12:26:32;;;;;;;;;;;;;;;23.62;39.33;96084.53;10384416;28;1987;-70
2023/07/07 12:31:32;;;;;;;;;;;;;;;23.62;39.15;96079.22;10385124;28;1974;-66
2023/07/07 12:36:33;;;;;;;;;;;;;;;23.65;39.68;96080.53;10382442;28;2010;-66
2023/07/07 12:41:34;;;;;;;;;;;;;;;23.65;39.70;96078.66;10380955;28;4713;-67
2023/07/07 12:46:35;;;;;;;;;;;;;;;23.68;39.56;96078.09;10361311;28;2061;-67
2023/07/07 12:51:36;;;;;;;;;;;;;;;23.69;39.91;96068.28;10366209;28;1981;-67
2023/07/07 12:56:36;;;;;;;;;;;;;;;23.72;39.66;96062.44;10359961;28;2228;-63
2023/07/07 13:01:36;;;;;;;;;;;;;;;23.72;39.46;96059.78;10359497;28;2043;-65
2023/07/07 13:06:37;;;;;;;;;;;;;;;23.70;39.66;96049.47;10384964;28;2263;-67
2023/07/07 13:11:38;;;;;;;;;;;;;;;23.72;39.55;96046.56;10386511;28;2003;-67
2023/07/07 13:16:38;;;;;;;;;;;;;;;23.70;39.90;96046.81;10385530;28;1890;-67
2023/07/07 13:21:39;;;;;;;;;;;;;;;23.74;39.60;96044.41;10386540;28;1950;-66
2023/07/07 13:26:39;;;;;;;;;;;;;;;23.73;39.96;96038.31;10383520;28;2059;-66
2023/07/07 13:31:40;;;;;;;;;;;;;;;23.74;39.73;96036.47;10384353;28;1934;-67
2023/07/07 13:36:42;;;;;;;;;;;;;;;23.72;40.07;96026.16;10386979;28;2025;-66
2023/07/07 13:41:42;;;;;;;;;;;;;;;23.74;40.21;96029.31;10385982;28;4533;-68
2023/07/07 13:46:44;;;;;;;;;;;;;;;23.75;40.12;96020.31;10375506;28;1950;-67
2023/07/07 13:51:52;;;;;;;;;;;;;;;23.75;40.31;96025.59;10378580;28;2034;-67
2023/07/07 13:57:10;;;;;;;;;;;;;;;23.78;40.08;96018.94;10384249;28;1882;-67
2023/07/07 14:02:14;;;;;;;;;;;;;;;23.77;40.20;96015.50;10383867;28;2077;-67
2023/07/07 14:07:15;;;;;;;;;;;;;;;23.77;40.40;96018.16;10387233;28;1914;-67
2023/07/07 14:12:16;;;;;;;;;;;;;;;23.76;40.09;96011.28;10386671;28;1946;-68
2023/07/07 14:17:17;;;;;;;;;;;;;;;23.77;40.04;96007.56;10380943;28;1898;-66
2023/07/07 14:22:17;;;;;;;;;;;;;;;23.79;40.00;96005.41;10390355;28;2032;-69
2023/07/07 14:27:18;;;;;;;;;;;;;;;23.78;39.98;95998.53;10371309;28;1957;-67
2023/07/07 14:32:20;;;;;;;;;;;;;;;23.78;39.93;96001.19;10374273;28;1902;-70
2023/07/07 14:37:21;;;;;;;;;;;;;;;23.79;39.80;95996.69;10369658;28;1936;-74
2023/07/07 14:42:22;;;;;;;;;;;;;;;23.77;39.60;95996.97;10389308;28;4533;-73
2023/07/07 14:47:32;;;;;;;;;;;;;;;23.77;39.34;95991.69;10396935;28;2087;-78
2023/07/07 14:52:51;;;;;;;;;;;;;;;23.76;38.58;95992.75;10382391;28;1961;-76
2023/07/07 14:57:55;;;;;;;;;;;;;;;23.74;37.67;95983.53;10382672;28;1953;-77
2023/07/07 15:02:55;;;;;;;;;;;;;;;23.72;37.78;95988.34;10382504;28;2051;-75
2023/07/07 15:07:58;;;;;;;;;;;;;;;23.71;37.57;95986.75;10400667;28;1918;-75
2023/07/07 15:12:58;;;;;;;;;;;;;;;23.72;37.12;95983.03;10384215;28;2040;-76
2023/07/07 15:17:59;;;;;;;;;;;;;;;23.70;36.86;95983.31;10397106;28;1918;-78
2023/07/07 15:22:59;;;;;;;;;;;;;;;23.68;36.69;95977.50;10399762;28;1889;-78
2023/07/07 15:27:59;;;;;;;;;;;;;;;23.68;36.59;95963.50;10412023;28;2005;-75
2023/07/07 15:33:00;;;;;;;;;;;;;;;23.67;36.52;95960.06;10400276;28;1994;-77
2023/07/07 15:38:19;;;;;;;;;;;;;;;23.67;36.42;95959.28;10412840;28;1973;-77
2023/07/07 15:43:19;;;;;;;;;;;;;;;23.67;35.88;95960.06;10399705;28;4478;-76
2023/07/07 15:48:20;;;;;;;;;;;;;;;23.68;35.48;95959.00;10398195;28;2001;-77
2023/07/07 15:53:20;;;;;;;;;;;;;;;23.65;35.49;95951.63;10402950;28;1934;-77
2023/07/07 15:58:20;;;;;;;;;;;;;;;23.63;35.40;95943.19;10400336;28;2110;-78
2023/07/07 16:03:20;;;;;;;;;;;;;;;23.64;35.26;95947.41;10398504;28;2146;-78
2023/07/07 16:08:21;;;;;;;;;;;;;;;23.65;35.06;95946.34;10398667;28;1925;-78
2023/07/07 16:13:21;;;;;;;;;;;;;;;23.64;34.96;95949.28;10404876;28;1878;-77
2023/07/07 16:18:22;;;;;;;;;;;;;;;23.64;35.15;95944.75;10395930;28;1941;-78
2023/07/07 16:23:22;;;;;;;;;;;;;;;23.65;35.00;95934.97;10397055;28;1987;-77
2023/07/07 16:28:22;;;;;;;;;;;;;;;23.65;35.06;95941.06;10398068;28;1916;-77
2023/07/07 16:33:23;;;;;;;;;;;;;;;23.65;35.05;95941.06;10400641;28;1917;-77
2023/07/07 16:38:24;;;;;;;;;;;;;;;23.67;35.01;95938.09;10404767;28;1943;-77
2023/07/07 16:43:24;;;;;;;;;;;;;;;23.64;34.90;95939.47;10390038;28;4547;-77
2023/07/07 16:48:24;;;;;;;;;;;;;;;23.65;34.76;95945.56;10404623;28;2023;-77
2023/07/07 16:53:24;;;;;;;;;;;;;;;23.64;34.97;95934.16;10403642;28;2277;-77
2023/07/07 16:58:25;;;;;;;;;;;;;;;23.64;34.90;95934.16;10404467;28;1998;-77
2023/07/07 17:03:25;;;;;;;;;;;;;;;23.66;35.12;95944.50;10403309;28;2050;-77
2023/07/07 17:08:25;;;;;;;;;;;;;;;23.67;35.11;95946.06;10399893;28;2053;-79
2023/07/07 17:13:25;;;;;;;;;;;;;;;23.67;35.00;95949.50;10382858;28;1932;-77
2023/07/07 17:18:26;;;;;;;;;;;;;;;23.67;35.02;95940.75;10401171;28;1901;-71
2023/07/07 17:23:26;;;;;;;;;;;;;;;23.68;35.09;95951.03;10405001;28;1886;-75
2023/07/07 17:28:28;;;;;;;;;;;;;;;23.68;35.15;95950.28;10403604;28;1969;-73
2023/07/07 17:33:28;;;;;;;;;;;;;;;23.71;35.36;95945.19;10399656;28;1938;-72
2023/07/07 17:38:29;;;;;;;;;;;;;;;23.70;35.36;95938.31;10401558;28;1925;-67
2023/07/07 17:43:29;;;;;;;;;;;;;;;23.72;35.43;95948.63;10402454;28;1925;-63
2023/07/07 17:48:29;;;;;;;;;;;;;;;23.72;35.47;95957.34;10401662;28;1915;-64
2023/07/07 17:53:30;;;;;;;;;;;;;;;23.71;35.67;95947.84;10402343;28;2326;-64
2023/07/07 17:58:30;;;;;;;;;;;;;;;23.70;35.41;95951.53;10402462;28;2063;-65
2023/07/07 18:03:30;;;;;;;;;;;;;;;23.71;35.47;95944.41;10397447;28;2115;-69
2023/07/07 18:08:31;;;;;;;;;;;;;;;23.72;35.47;95945.97;10403795;28;1939;-66
2023/07/07 18:13:31;;;;;;;;;;;;;;;23.71;35.24;95949.69;10404123;28;1989;-66
2023/07/07 18:18:31;;;;;;;;;;;;;;;23.70;34.86;95945.50;10400141;28;1947;-76
2023/07/07 18:23:31;;;;;;;;;;;;;;;23.73;35.74;95944.91;10401043;28;2004;-76
2023/07/07 18:28:32;;;;;;;;;;;;;;;23.74;36.41;95949.91;10400904;28;1942;-76
2023/07/07 18:33:32;;;;;;;;;;;;;;;23.76;36.43;95953.03;10382531;28;2099;-75
2023/07/07 18:38:32;;;;;;;;;;;;;;;23.76;36.18;95946.97;10380089;28;1952;-76
2023/07/07 18:43:32;;;;;;;;;;;;;;;23.76;36.31;95946.97;10402073;28;4438;-74
2023/07/07 18:48:33;;;;;;;;;;;;;;;23.77;36.42;95951.97;10399634;28;2052;-75
2023/07/07 18:53:33;;;;;;;;;;;;;;;23.76;36.62;95953.03;10401363;28;1952;-75
2023/07/07 18:58:33;;;;;;;;;;;;;;;23.77;36.67;95951.97;10409228;28;1934;-75
2023/07/07 19:03:34;;;;;;;;;;;;;;;23.76;36.69;95950.38;10401569;28;1874;-75
2023/07/07 19:08:34;;;;;;;;;;;;;;;23.76;36.54;95946.97;10398908;28;1990;-77
2023/07/07 19:13:34;;;;;;;;;;;;;;;23.77;36.78;95956.47;10396581;28;1982;-71
2023/07/07 19:18:39;;;;;;;;;;;;;;;23.77;36.55;95956.47;10402000;28;1910;-71
2023/07/07 19:23:39;;;;;;;;;;;;;;;23.77;36.85;95957.28;10385928;28;1956;-75
2023/07/07 19:28:39;;;;;;;;;;;;;;;23.77;37.02;95959.13;10400955;28;2054;-73
2023/07/07 19:33:40;;;;;;;;;;;;;;;23.77;36.79;95953.81;10394461;28;1958;-73
2023/07/07 19:38:40;;;;;;;;;;;;;;;23.78;37.03;95956.19;10401467;28;1951;-74
2023/07/07 19:43:42;;;;;;;;;;;;;;;23.79;37.28;95946.38;10382199;28;4455;-71
2023/07/07 19:48:42;;;;;;;;;;;;;;;23.77;37.41;95951.97;10396136;28;1914;-75
2023/07/07 19:53:43;;;;;;;;;;;;;;;23.78;37.32;95950.88;10398288;28;1984;-76
2023/07/07 19:58:43;;;;;;;;;;;;;;;23.78;37.53;95966.78;10396767;28;1936;-76
2023/07/07 20:03:44;;;;;;;;;;;;;;;23.79;37.64;95967.56;10381151;28;1912;-75
2023/07/07 20:08:44;;;;;;;;;;;;;;;23.79;37.58;95971.00;10393597;28;1942;-74
2023/07/07 20:13:45;;;;;;;;;;;;;;;23.80;37.53;95969.91;10376656;28;2041;-76
2023/07/07 20:18:46;;;;;;;;;;;;;;;23.80;37.77;95966.50;10393429;28;1934;-76
2023/07/07 20:23:46;;;;;;;;;;;;;;;23.80;37.77;95969.16;10377939;28;2021;-73
2023/07/07 20:28:48;;;;;;;;;;;;;;;23.80;37.80;95963.84;10398606;28;2067;-75
2023/07/07 20:33:48;;;;;;;;;;;;;;;23.80;37.75;95969.91;10400185;28;2017;-73
2023/07/07 20:38:48;;;;;;;;;;;;;;;23.79;37.63;95975.50;10394674;28;2222;-74
2023/07/07 20:43:49;;;;;;;;;;;;;;;23.81;37.82;95970.72;10376395;28;4344;-73
2023/07/07 20:48:49;;;;;;;;;;;;;;;23.79;37.63;95971.00;10381799;28;2063;-76
2023/07/07 20:53:50;;;;;;;;;;;;;;;23.80;37.58;95969.16;10394338;28;1891;-75
2023/07/07 20:58:50;;;;;;;;;;;;;;;23.81;37.73;95960.13;10405774;28;1994;-73
2023/07/07 21:03:50;;;;;;;;;;;;;;;23.81;37.93;95968.84;10395194;28;1972;-73
2023/07/07 21:08:50;;;;;;;;;;;;;;;23.80;37.62;95967.25;10400372;28;1942;-74
2023/07/07 21:13:51;;;;;;;;;;;;;;;23.81;37.94;95974.16;10395200;28;1927;-74
2023/07/07 21:18:51;;;;;;;;;;;;;;;23.80;38.13;95972.56;10396264;28;2161;-73
2023/07/07 21:23:51;;;;;;;;;;;;;;;23.80;37.96;95975.22;10398155;28;2004;-73
2023/07/07 21:28:51;;;;;;;;;;;;;;;23.80;37.66;95977.84;10402282;28;1997;-75
2023/07/07 21:33:52;;;;;;;;;;;;;;;23.81;38.03;95984.72;10400507;28;2300;-74
2023/07/07 21:38:52;;;;;;;;;;;;;;;23.80;37.92;95983.16;10386719;28;1924;-75
2023/07/07 21:43:52;;;;;;;;;;;;;;;23.81;38.21;95976.78;10401137;28;4454;-73
2023/07/07 21:48:52;;;;;;;;;;;;;;;23.80;38.05;95969.16;10398809;28;1906;-74
2023/07/07 21:53:53;;;;;;;;;;;;;;;23.81;38.12;95960.13;10400894;28;2051;-73
2023/07/07 21:58:53;;;;;;;;;;;;;;;23.80;38.00;95961.97;10404802;28;2082;-74
2023/07/07 22:03:53;;;;;;;;;;;;;;;23.81;38.07;95960.91;10399245;28;1929;-74
2023/07/07 22:08:54;;;;;;;;;;;;;;;23.80;37.97;95954.03;10400355;28;1983;-75
2023/07/07 22:13:54;;;;;;;;;;;;;;;23.80;38.13;95954.03;10399140;28;1952;-75
2023/07/07 22:18:54;;;;;;;;;;;;;;;23.80;38.04;95950.63;10398587;28;1965;-74
2023/07/07 22:23:54;;;;;;;;;;;;;;;23.80;38.11;95954.03;10385202;28;2103;-75
2023/07/07 22:28:55;;;;;;;;;;;;;;;23.79;37.87;95952.47;10400011;28;2010;-75
2023/07/07 22:33:55;;;;;;;;;;;;;;;23.80;37.88;95958.56;10396925;28;2348;-72
2023/07/07 22:38:56;;;;;;;;;;;;;;;23.75;37.26;95956.78;10400601;28;1908;-69
2023/07/07 22:43:57;;;;;;;;;;;;;;;23.61;36.31;95950.66;10408716;28;1935;-70
2023/07/07 22:48:57;;;;;;;;;;;;;;;23.51;35.84;95945.50;10403477;28;2030;-72
2023/07/07 22:53:57;;;;;;;;;;;;;;;23.42;35.67;95937.44;10399386;28;1946;-69
2023/07/07 22:58:58;;;;;;;;;;;;;;;23.36;35.64;95940.44;10399172;28;1877;-69
2023/07/07 23:04:05;;;;;;;;;;;;;;;23.29;35.56;95932.81;10396732;28;2341;-70
2023/07/07 23:09:25;;;;;;;;;;;;;;;23.25;35.71;95938.94;10380214;28;1948;-69
2023/07/07 23:14:26;;;;;;;;;;;;;;;23.19;36.01;95932.16;10384162;28;1938;-69
2023/07/07 23:19:26;;;;;;;;;;;;;;;23.14;35.76;95930.38;10399093;28;2010;-69
2023/07/07 23:24:26;;;;;;;;;;;;;;;23.12;35.65;95929.09;10399881;28;2009;-69
2023/07/07 23:29:29;;;;;;;;;;;;;;;23.09;36.03;95932.31;10398151;28;2219;-69
2023/07/07 23:34:29;;;;;;;;;;;;;;;23.05;35.75;95928.66;10398160;28;1899;-70
2023/07/07 23:39:29;;;;;;;;;;;;;;;23.02;36.06;95911.50;10398306;28;1964;-69
2023/07/07 23:44:29;;;;;;;;;;;;;;;22.97;36.20;95908.94;10399950;28;4562;-69
2023/07/07 23:49:30;;;;;;;;;;;;;;;22.96;36.07;95911.84;10394340;28;1954;-69
2023/07/07 23:54:30;;;;;;;;;;;;;;;22.93;36.11;95913.22;10401364;28;1950;-69
2023/07/07 23:59:31;;;;;;;;;;;;;;;22.91;36.33;95906.63;10397664;28;2296;-69
